Carthage, South Dakota
Current Conditions -  °F | °C
As of 4:55 PM on Saturday 25 Oct 2014 (Local Time) from KHON Reporting Station
Clear Clear  
Wind Chill: 67°   Ceiling: Unl
Heat Index: 67°   Visibility: 10mi
Dew Point: 28°   Wind: 3mph
Humidity: 23%   Direction: 70°ENE
Pressure: 30.08"   Gusts: NA
Location:  44.17°N, 97.72°W
Report Text: KHON 252155Z AUTO 07003KT 10SM CLR 19/M02 A3008 RMK AO2 SLP188 T01941022
Loading
Personal Weather Stations






























Interactive Weather Map
Tropical Storm Tracking
New forecast layout! Learn more

10-Day Weather Forecast

Advertisements
Track Severe Weather on mobile